createdAt,value
2019-02-21T00:01:00.763Z,10.34
2019-02-21T00:03:30.044Z,10.22
2019-02-21T00:05:59.323Z,10.31
2019-02-21T00:08:28.693Z,10.45
2019-02-21T00:10:57.973Z,10.32
2019-02-21T00:13:27.240Z,10.41
2019-02-21T00:15:56.521Z,10.40
2019-02-21T00:18:25.795Z,9.99
2019-02-21T00:20:55.120Z,10.07
2019-02-21T00:23:24.376Z,10.10
2019-02-21T00:25:55.734Z,10.16
2019-02-21T00:28:24.679Z,10.45
2019-02-21T00:30:53.972Z,10.53
2019-02-21T00:33:23.224Z,10.55
2019-02-21T00:35:52.508Z,10.43
2019-02-21T00:38:21.742Z,10.40
2019-02-21T00:40:51.049Z,10.54
2019-02-21T00:43:20.303Z,10.55
2019-02-21T00:45:49.589Z,10.49
2019-02-21T00:48:18.862Z,10.28
2019-02-21T00:50:48.169Z,10.10
2019-02-21T00:53:17.430Z,10.27
2019-02-21T00:55:46.754Z,10.36
2019-02-21T00:58:16.053Z,10.56
2019-02-21T01:00:46.732Z,10.50
2019-02-21T01:03:16.266Z,10.52
2019-02-21T01:05:45.566Z,10.45
2019-02-21T01:08:14.828Z,10.60
2019-02-21T01:10:44.112Z,10.32
2019-02-21T01:13:13.372Z,10.42
2019-02-21T01:15:42.643Z,10.54
2019-02-21T01:18:11.911Z,10.49
2019-02-21T01:20:41.186Z,10.48
2019-02-21T01:23:10.455Z,10.39
2019-02-21T01:25:39.715Z,10.28
2019-02-21T01:28:08.993Z,10.34
2019-02-21T01:30:38.246Z,10.40
2019-02-21T01:33:07.540Z,10.38
2019-02-21T01:35:36.789Z,10.50
2019-02-21T01:38:06.106Z,10.67
2019-02-21T01:40:35.413Z,10.56
2019-02-21T01:43:04.685Z,10.35
2019-02-21T01:45:33.936Z,10.49
2019-02-21T01:48:03.229Z,10.51
2019-02-21T01:50:32.918Z,10.55
2019-02-21T01:53:02.194Z,10.55
2019-02-21T01:55:31.430Z,10.68
2019-02-21T01:58:00.691Z,10.57
2019-02-21T02:00:29.953Z,10.49
2019-02-21T02:02:59.318Z,10.51
2019-02-21T02:05:28.709Z,10.58
2019-02-21T02:07:58.036Z,10.53
2019-02-21T02:10:27.425Z,10.58
2019-02-21T02:12:56.709Z,10.57
2019-02-21T02:15:26.011Z,10.68
2019-02-21T02:17:55.255Z,10.52
2019-02-21T02:20:24.575Z,10.75
2019-02-21T02:22:53.853Z,10.77
2019-02-21T02:25:23.130Z,10.58
2019-02-21T02:27:52.391Z,10.77
2019-02-21T02:30:21.693Z,10.59
2019-02-21T02:32:50.954Z,10.57
2019-02-21T02:35:20.256Z,10.78
2019-02-21T02:37:49.548Z,10.82
2019-02-21T02:40:18.837Z,10.71
2019-02-21T02:42:48.082Z,10.52
2019-02-21T02:45:17.357Z,10.40
2019-02-21T02:47:46.634Z,10.53
2019-02-21T02:50:15.911Z,10.55
2019-02-21T02:52:45.167Z,10.76
2019-02-21T02:55:14.431Z,10.24
2019-02-21T02:57:43.714Z,10.13
2019-02-21T03:00:14.438Z,10.68
2019-02-21T03:02:43.670Z,10.67
2019-02-21T03:05:13.022Z,10.59
2019-02-21T03:07:42.280Z,10.52
2019-02-21T03:10:13.949Z,10.65
2019-02-21T03:12:43.252Z,10.59
2019-02-21T03:15:12.498Z,10.51
2019-02-21T03:17:41.772Z,10.27
2019-02-21T03:20:11.203Z,10.47
2019-02-21T03:22:40.448Z,10.66
2019-02-21T03:25:09.854Z,10.46
2019-02-21T03:27:39.143Z,10.37
2019-02-21T03:30:12.194Z,10.27
2019-02-21T03:32:40.109Z,10.50
2019-02-21T03:35:09.481Z,10.51
2019-02-21T03:37:38.943Z,10.27
2019-02-21T03:40:08.866Z,10.50
2019-02-21T03:42:38.188Z,10.26
2019-02-21T03:45:08.692Z,10.19
2019-02-21T03:47:38.005Z,9.90
2019-02-21T03:50:08.006Z,10.09
2019-02-21T03:52:37.362Z,9.95
2019-02-21T03:55:07.956Z,9.88
2019-02-21T03:57:37.416Z,9.84
2019-02-21T04:00:08.096Z,9.99
2019-02-21T04:02:37.467Z,10.02
2019-02-21T04:05:07.666Z,10.19
2019-02-21T04:07:36.930Z,10.22
2019-02-21T04:10:06.584Z,10.27
2019-02-21T04:12:35.848Z,10.26
2019-02-21T04:15:05.705Z,9.96
2019-02-21T04:17:35.024Z,10.17
2019-02-21T04:20:04.315Z,10.24
2019-02-21T04:22:33.627Z,10.08
2019-02-21T04:25:02.909Z,10.30
2019-02-21T04:27:32.183Z,9.87
2019-02-21T04:30:01.588Z,10.03
2019-02-21T04:32:30.870Z,10.37
2019-02-21T04:35:00.379Z,9.93
2019-02-21T04:37:29.695Z,9.83
2019-02-21T04:39:58.994Z,9.91
2019-02-21T04:42:28.321Z,9.71
2019-02-21T04:45:00.511Z,10.07
2019-02-21T04:47:28.609Z,10.17
2019-02-21T04:49:57.902Z,9.84
2019-02-21T04:52:28.404Z,9.80
2019-02-21T04:54:57.599Z,9.76
2019-02-21T04:57:26.840Z,9.87
2019-02-21T04:59:56.150Z,9.89
2019-02-21T05:02:28.937Z,9.76
2019-02-21T05:04:56.479Z,9.74
2019-02-21T05:07:25.849Z,9.87
2019-02-21T05:09:58.238Z,9.77
2019-02-21T05:12:26.245Z,9.76
2019-02-21T05:14:55.640Z,9.91
2019-02-21T05:17:24.902Z,9.85
2019-02-21T05:19:54.209Z,9.95
2019-02-21T05:22:23.497Z,9.74
2019-02-21T05:24:52.786Z,9.95
2019-02-21T05:27:29.434Z,9.92
2019-02-21T05:29:58.703Z,9.85
2019-02-21T05:32:45.752Z,9.97
2019-02-21T05:35:30.938Z,10.03
2019-02-21T05:38:15.371Z,10.11
2019-02-21T05:40:52.138Z,10.14
2019-02-21T05:43:26.424Z,10.19
2019-02-21T05:46:14.673Z,10.30
2019-02-21T05:49:11.972Z,10.28
2019-02-21T05:51:48.939Z,10.07
2019-02-21T05:54:43.094Z,10.13
2019-02-21T05:57:31.322Z,9.92
2019-02-21T06:00:25.773Z,10.12
2019-02-21T06:03:07.143Z,10.03
2019-02-21T06:05:58.130Z,9.91
2019-02-21T06:08:55.228Z,10.08
2019-02-21T06:11:52.593Z,10.03
2019-02-21T06:14:33.841Z,10.03
2019-02-21T06:17:09.291Z,9.99
2019-02-21T06:20:06.619Z,10.07
2019-02-21T06:22:53.243Z,9.80
2019-02-21T06:25:34.025Z,9.92
2019-02-21T06:28:07.525Z,9.73
2019-02-21T06:30:43.245Z,9.91
2019-02-21T06:33:11.709Z,10.04
2019-02-21T06:35:40.972Z,10.05
2019-02-21T06:38:10.273Z,10.26
2019-02-21T06:40:39.745Z,9.79
2019-02-21T06:43:09.057Z,10.07
2019-02-21T06:45:38.287Z,9.97
2019-02-21T06:48:07.589Z,10.04
2019-02-21T06:50:36.855Z,9.97
2019-02-21T06:53:06.198Z,10.05
2019-02-21T06:55:35.549Z,9.89
2019-02-21T06:58:04.918Z,10.05
2019-02-21T07:00:34.149Z,10.05
2019-02-21T07:03:03.584Z,9.98
2019-02-21T07:05:32.862Z,10.30
2019-02-21T07:08:02.149Z,10.12
2019-02-21T07:10:31.485Z,10.30
2019-02-21T07:13:00.863Z,10.30
2019-02-21T07:15:30.151Z,10.27
2019-02-21T07:17:59.430Z,10.17
2019-02-21T07:20:28.705Z,10.40
2019-02-21T07:22:57.966Z,11.43
2019-02-21T07:25:34.544Z,11.38
2019-02-21T07:28:11.198Z,11.88
2019-02-21T07:30:34.841Z,11.46
2019-02-21T07:33:04.097Z,11.70
2019-02-21T07:35:33.371Z,12.02
2019-02-21T07:38:02.645Z,11.89
2019-02-21T07:40:31.924Z,12.32
2019-02-21T07:43:01.209Z,12.11
2019-02-21T07:45:30.487Z,12.40
2019-02-21T07:47:59.827Z,11.76
2019-02-21T07:50:29.134Z,11.81
2019-02-21T07:53:02.539Z,11.79
2019-02-21T07:55:29.468Z,12.13
2019-02-21T07:57:58.718Z,11.98
2019-02-21T08:00:28.035Z,12.22
2019-02-21T08:02:57.307Z,12.34
2019-02-21T08:05:26.626Z,12.65
2019-02-21T08:07:55.898Z,12.48
2019-02-21T08:10:33.220Z,12.81
2019-02-21T08:12:56.289Z,12.29
2019-02-21T08:15:27.676Z,12.61
2019-02-21T08:17:56.607Z,12.38
2019-02-21T08:20:33.510Z,12.64
2019-02-21T08:22:56.905Z,12.38
2019-02-21T08:25:26.145Z,12.33
2019-02-21T08:27:55.457Z,12.39
2019-02-21T08:30:24.713Z,12.38
2019-02-21T08:33:22.033Z,12.18
2019-02-21T08:35:53.902Z,12.63
2019-02-21T08:38:22.361Z,12.62
2019-02-21T08:40:53.313Z,12.51
2019-02-21T08:43:22.669Z,12.83
2019-02-21T08:45:51.940Z,12.82
2019-02-21T08:48:21.279Z,13.02
2019-02-21T08:50:50.532Z,12.89
2019-02-21T08:53:19.866Z,12.94
2019-02-21T08:55:49.122Z,12.83
2019-02-21T08:58:18.530Z,13.00
2019-02-21T09:00:47.841Z,12.98
2019-02-21T09:03:18.173Z,13.35
2019-02-21T09:05:47.603Z,13.17
2019-02-21T09:08:17.004Z,13.49
2019-02-21T09:10:46.352Z,13.51
2019-02-21T09:13:15.647Z,14.22
2019-02-21T09:15:46.610Z,14.42
2019-02-21T09:18:16.091Z,14.05
2019-02-21T09:20:47.764Z,13.79
2019-02-21T09:23:16.415Z,14.11
2019-02-21T09:25:49.618Z,14.10
2019-02-21T09:28:19.080Z,14.15
2019-02-21T09:30:48.333Z,14.06
2019-02-21T09:33:21.116Z,13.98
2019-02-21T09:35:48.723Z,14.23
2019-02-21T09:38:18.088Z,14.69
2019-02-21T09:40:47.332Z,14.61
2019-02-21T09:43:16.622Z,14.98
2019-02-21T09:45:45.896Z,14.31
2019-02-21T09:48:15.168Z,14.15
2019-02-21T09:50:44.497Z,14.47
2019-02-21T09:53:13.782Z,14.93
2019-02-21T09:55:43.082Z,14.65
2019-02-21T09:58:12.344Z,14.66
2019-02-21T10:00:41.626Z,14.36
2019-02-21T10:03:10.873Z,14.81
2019-02-21T10:05:40.149Z,14.28
2019-02-21T10:08:09.403Z,14.63
2019-02-21T10:10:38.740Z,14.07
2019-02-21T10:13:08.023Z,14.17
2019-02-21T10:15:37.317Z,14.25
2019-02-21T10:18:06.568Z,14.34
2019-02-21T10:20:35.853Z,14.44
2019-02-21T10:23:05.095Z,14.86
2019-02-21T10:25:34.402Z,14.98
2019-02-21T10:28:03.708Z,15.08
2019-02-21T10:30:33.041Z,15.82
2019-02-21T10:33:02.300Z,15.49
2019-02-21T10:35:31.656Z,15.79
2019-02-21T10:38:00.940Z,15.85
2019-02-21T10:40:30.242Z,16.60
2019-02-21T10:42:59.557Z,16.00
2019-02-21T10:45:28.830Z,15.80
2019-02-21T10:47:58.111Z,16.00
2019-02-21T10:50:27.390Z,16.02
2019-02-21T10:52:56.704Z,15.84
2019-02-21T10:55:25.981Z,15.72
2019-02-21T10:57:55.263Z,15.99
2019-02-21T11:00:26.891Z,16.16
2019-02-21T11:02:56.155Z,16.07
2019-02-21T11:05:25.432Z,15.94
2019-02-21T11:07:54.738Z,15.66
2019-02-21T11:10:25.954Z,15.95
2019-02-21T11:12:55.312Z,15.91
2019-02-21T11:15:24.916Z,15.66
2019-02-21T11:17:54.307Z,15.95
2019-02-21T11:20:23.613Z,16.12
2019-02-21T11:22:52.921Z,16.06
2019-02-21T11:25:22.195Z,16.35
2019-02-21T11:27:51.489Z,16.53
2019-02-21T11:30:20.880Z,16.43
2019-02-21T11:32:50.207Z,16.38
2019-02-21T11:35:19.537Z,16.30
2019-02-21T11:37:48.844Z,16.20
2019-02-21T11:40:18.293Z,16.25
2019-02-21T11:42:47.673Z,16.28
2019-02-21T11:45:17.593Z,16.66
2019-02-21T11:47:46.880Z,16.53
2019-02-21T11:50:17.083Z,16.71
2019-02-21T11:52:46.368Z,16.74
2019-02-21T11:55:18.032Z,17.08
2019-02-21T11:57:47.411Z,16.67
2019-02-21T12:00:21.544Z,16.90
2019-02-21T12:02:50.841Z,16.42
2019-02-21T12:05:30.688Z,16.33
2019-02-21T12:07:51.478Z,16.81
2019-02-21T12:10:20.888Z,16.50
2019-02-21T12:12:50.156Z,16.83
2019-02-21T12:15:19.572Z,17.05
2019-02-21T12:17:48.850Z,17.49
2019-02-21T12:20:18.357Z,17.10
2019-02-21T12:22:47.641Z,17.00
2019-02-21T12:25:17.282Z,17.55
2019-02-21T12:27:46.557Z,17.76
2019-02-21T12:30:17.407Z,17.66
2019-02-21T12:32:46.776Z,17.73
2019-02-21T12:35:16.073Z,17.51
2019-02-21T12:37:45.374Z,17.73
2019-02-21T12:40:17.148Z,17.22
2019-02-21T12:42:46.427Z,17.43
2019-02-21T12:45:17.590Z,17.08
2019-02-21T12:47:53.146Z,16.83
2019-02-21T12:50:17.976Z,16.74
2019-02-21T12:52:47.247Z,16.40
2019-02-21T12:55:27.300Z,17.18
2019-02-21T12:57:47.534Z,16.96
2019-02-21T13:00:18.203Z,17.28
2019-02-21T13:02:47.479Z,16.95
2019-02-21T13:05:16.771Z,17.08
2019-02-21T13:07:46.079Z,17.27
2019-02-21T13:10:16.957Z,16.85
2019-02-21T13:12:46.246Z,16.93
2019-02-21T13:15:15.898Z,16.80
2019-02-21T13:17:45.182Z,17.33
2019-02-21T13:20:14.762Z,17.02
2019-02-21T13:22:44.218Z,17.16
2019-02-21T13:25:13.820Z,17.00
2019-02-21T13:27:43.107Z,16.97
2019-02-21T13:30:14.644Z,16.98
2019-02-21T13:32:43.985Z,17.07
2019-02-21T13:35:13.418Z,16.97
2019-02-21T13:37:42.818Z,17.71
2019-02-21T13:40:13.445Z,16.97
2019-02-21T13:42:42.743Z,17.36
2019-02-21T13:45:17.006Z,17.37
2019-02-21T13:47:44.995Z,16.87
2019-02-21T13:50:15.761Z,17.24
2019-02-21T13:52:45.070Z,17.16
2019-02-21T13:55:14.319Z,17.27
2019-02-21T13:57:43.610Z,17.15
2019-02-21T14:00:15.454Z,17.02
2019-02-21T14:02:44.766Z,17.21
2019-02-21T14:05:14.136Z,17.38
2019-02-21T14:07:43.469Z,17.19
2019-02-21T14:10:15.253Z,17.38
2019-02-21T14:12:44.552Z,17.25
2019-02-21T14:15:16.581Z,17.52
2019-02-21T14:17:46.733Z,17.32
2019-02-21T14:20:16.244Z,17.70
2019-02-21T14:22:45.530Z,17.33
2019-02-21T14:25:14.854Z,17.46
2019-02-21T14:27:44.139Z,17.63
2019-02-21T14:30:15.486Z,17.29
2019-02-21T14:32:44.770Z,17.48
2019-02-21T14:35:14.705Z,17.44
2019-02-21T14:37:44.018Z,17.47
2019-02-21T14:40:16.059Z,17.41
2019-02-21T14:42:45.404Z,16.89
2019-02-21T14:45:16.226Z,17.76
2019-02-21T14:47:45.499Z,17.15
2019-02-21T14:50:14.953Z,17.50
2019-02-21T14:52:44.303Z,17.41
2019-02-21T14:55:15.397Z,17.60
2019-02-21T14:57:44.759Z,16.89
2019-02-21T15:00:20.018Z,17.19
2019-02-21T15:02:49.353Z,16.82
2019-02-21T15:05:19.344Z,17.36
2019-02-21T15:07:48.693Z,17.12
2019-02-21T15:10:18.062Z,17.25
2019-02-21T15:12:47.727Z,17.42
2019-02-21T15:15:17.881Z,17.28
2019-02-21T15:17:47.206Z,17.41
2019-02-21T15:20:17.165Z,17.27
2019-02-21T15:22:46.562Z,16.35
2019-02-21T15:25:15.880Z,16.42
2019-02-21T15:27:45.192Z,16.59
2019-02-21T15:30:16.195Z,16.84
2019-02-21T15:32:45.580Z,16.31
2019-02-21T15:35:15.256Z,16.32
2019-02-21T15:37:45.162Z,16.65
2019-02-21T15:40:14.711Z,16.75
2019-02-21T15:42:44.072Z,16.56
2019-02-21T15:45:22.981Z,16.70
2019-02-21T15:47:46.474Z,16.66
2019-02-21T15:50:15.855Z,16.55
2019-02-21T15:52:45.431Z,16.32
2019-02-21T15:55:15.354Z,16.68
2019-02-21T15:57:44.699Z,16.97
2019-02-21T16:00:16.227Z,16.77
2019-02-21T16:02:45.573Z,16.88
2019-02-21T16:05:14.869Z,17.02
2019-02-21T16:07:44.323Z,17.07
2019-02-21T16:10:15.895Z,16.83
2019-02-21T16:12:45.598Z,16.89
2019-02-21T16:15:16.564Z,16.77
2019-02-21T16:17:46.129Z,16.63
2019-02-21T16:20:15.893Z,16.68
2019-02-21T16:22:45.404Z,16.53
2019-02-21T16:25:16.836Z,16.46
2019-02-21T16:27:46.157Z,16.51
2019-02-21T16:30:15.665Z,16.68
2019-02-21T16:32:45.005Z,16.65
2019-02-21T16:35:14.334Z,16.73
2019-02-21T16:37:43.631Z,16.63
2019-02-21T16:40:13.729Z,16.66
2019-02-21T16:42:43.017Z,16.33
2019-02-21T16:45:13.411Z,16.29
2019-02-21T16:47:42.750Z,16.35
2019-02-21T16:50:12.911Z,16.16
2019-02-21T16:52:42.246Z,16.40
2019-02-21T16:55:13.819Z,16.42
2019-02-21T16:57:43.179Z,16.40
2019-02-21T17:00:13.466Z,16.27
2019-02-21T17:02:42.751Z,16.38
2019-02-21T17:05:12.272Z,16.23
2019-02-21T17:07:41.590Z,16.25
2019-02-21T17:10:12.121Z,16.24
2019-02-21T17:12:41.446Z,16.28
2019-02-21T17:15:11.593Z,16.51
2019-02-21T17:17:40.946Z,16.20
2019-02-21T17:20:11.950Z,16.47
2019-02-21T17:22:41.250Z,16.33
2019-02-21T17:25:11.531Z,16.20
2019-02-21T17:27:40.824Z,15.97
2019-02-21T17:30:11.492Z,16.06
2019-02-21T17:32:40.789Z,16.24
2019-02-21T17:35:10.190Z,16.04
2019-02-21T17:37:39.564Z,15.80
2019-02-21T17:40:10.815Z,15.64
2019-02-21T17:42:40.277Z,16.14
2019-02-21T17:45:10.513Z,16.05
2019-02-21T17:47:39.819Z,15.84
2019-02-21T17:50:11.058Z,15.42
2019-02-21T17:52:40.477Z,15.41
2019-02-21T17:55:10.082Z,15.54
2019-02-21T17:57:39.411Z,15.51
2019-02-21T18:00:11.958Z,15.56
2019-02-21T18:02:41.342Z,15.39
2019-02-21T18:05:10.736Z,15.14
2019-02-21T18:07:40.122Z,15.43
2019-02-21T18:10:11.493Z,15.38
2019-02-21T18:12:40.845Z,15.54
2019-02-21T18:15:10.677Z,15.42
2019-02-21T18:17:40.033Z,15.41
2019-02-21T18:20:10.279Z,15.54
2019-02-21T18:22:39.778Z,15.46
2019-02-21T18:25:12.517Z,15.35
2019-02-21T18:27:43.687Z,15.28
2019-02-21T18:30:14.335Z,15.36
2019-02-21T18:32:43.662Z,15.42
2019-02-21T18:35:13.040Z,15.45
2019-02-21T18:37:47.540Z,14.88
2019-02-21T18:40:18.490Z,15.11
2019-02-21T18:42:46.430Z,14.99
2019-02-21T18:45:15.871Z,14.70
2019-02-21T18:47:45.226Z,15.07
2019-02-21T18:50:14.837Z,15.25
2019-02-21T18:52:44.162Z,15.25
2019-02-21T18:55:13.864Z,15.22
2019-02-21T18:57:43.145Z,15.26
2019-02-21T19:00:14.072Z,14.92
2019-02-21T19:02:43.352Z,15.21
2019-02-21T19:05:12.736Z,15.44
2019-02-21T19:07:42.084Z,15.29
2019-02-21T19:10:12.623Z,15.23
2019-02-21T19:12:42.125Z,15.48
2019-02-21T19:15:11.826Z,15.20
2019-02-21T19:17:41.262Z,15.12
2019-02-21T19:20:11.685Z,15.31
2019-02-21T19:22:41.228Z,15.40
2019-02-21T19:25:11.125Z,15.16
2019-02-21T19:27:40.537Z,15.07
2019-02-21T19:30:16.875Z,14.57
2019-02-21T19:32:46.265Z,14.62
2019-02-21T19:35:16.316Z,14.68
2019-02-21T19:37:45.790Z,14.77
2019-02-21T19:40:16.139Z,14.27
2019-02-21T19:42:45.564Z,14.11
2019-02-21T19:45:14.985Z,14.53
2019-02-21T19:47:44.377Z,14.46
2019-02-21T19:50:14.370Z,14.71
2019-02-21T19:52:43.815Z,14.34
2019-02-21T19:55:13.733Z,14.55
2019-02-21T19:57:43.182Z,14.36
2019-02-21T20:00:14.324Z,14.31
2019-02-21T20:02:43.756Z,13.99
2019-02-21T20:05:13.699Z,14.27
2019-02-21T20:07:43.039Z,14.09
2019-02-21T20:10:12.492Z,14.69
2019-02-21T20:12:42.135Z,14.51
2019-02-21T20:15:11.657Z,15.02
2019-02-21T20:17:40.994Z,15.09
2019-02-21T20:20:11.613Z,14.49
2019-02-21T20:22:40.978Z,14.63
2019-02-21T20:25:10.330Z,14.63
2019-02-21T20:27:39.805Z,14.55
2019-02-21T20:30:11.089Z,14.77
2019-02-21T20:32:40.618Z,14.89
2019-02-21T20:35:10.178Z,14.81
2019-02-21T20:37:39.669Z,14.50
2019-02-21T20:40:09.274Z,14.13
2019-02-21T20:42:38.589Z,14.46
2019-02-21T20:45:08.600Z,14.20
2019-02-21T20:47:37.971Z,14.03
2019-02-21T20:50:08.061Z,14.26
2019-02-21T20:52:37.430Z,14.37
2019-02-21T20:55:07.812Z,14.31
2019-02-21T20:57:37.179Z,14.04
2019-02-21T21:00:07.600Z,14.36
2019-02-21T21:02:38.273Z,14.63
2019-02-21T21:05:08.003Z,14.82
2019-02-21T21:07:37.381Z,15.09
2019-02-21T21:10:09.305Z,15.15
2019-02-21T21:12:38.689Z,15.81
2019-02-21T21:15:09.548Z,15.56
2019-02-21T21:17:39.143Z,15.40
2019-02-21T21:20:16.511Z,15.09
2019-02-21T21:22:40.936Z,15.43
2019-02-21T21:25:11.916Z,15.44
2019-02-21T21:27:41.289Z,15.10
2019-02-21T21:30:12.369Z,14.74
2019-02-21T21:32:41.764Z,15.12
2019-02-21T21:35:11.510Z,15.16
2019-02-21T21:37:40.791Z,15.01
2019-02-21T21:40:11.936Z,15.21
2019-02-21T21:42:41.372Z,15.44
2019-02-21T21:45:13.382Z,15.04
2019-02-21T21:47:42.762Z,14.88
2019-02-21T21:50:14.145Z,15.35
2019-02-21T21:52:43.508Z,15.48
2019-02-21T21:55:12.837Z,15.10
2019-02-21T21:57:42.236Z,15.04
2019-02-21T22:00:17.932Z,15.05
2019-02-21T22:02:46.800Z,15.15
2019-02-21T22:05:16.382Z,14.90
2019-02-21T22:07:49.526Z,14.79
2019-02-21T22:10:19.148Z,15.12
2019-02-21T22:12:48.488Z,14.65
2019-02-21T22:15:18.068Z,14.82
2019-02-21T22:17:47.444Z,14.96
2019-02-21T22:20:16.773Z,14.91
2019-02-21T22:22:46.108Z,14.56
2019-02-21T22:25:15.427Z,14.59
2019-02-21T22:27:44.813Z,15.15
2019-02-21T22:30:16.611Z,14.98
2019-02-21T22:32:46.030Z,14.94
2019-02-21T22:35:15.371Z,14.28
2019-02-21T22:37:44.755Z,14.48
2019-02-21T22:40:14.475Z,14.17
2019-02-21T22:42:43.818Z,13.65
2019-02-21T22:45:13.600Z,14.20
2019-02-21T22:47:42.927Z,14.19
2019-02-21T22:50:13.863Z,14.58
2019-02-21T22:52:43.251Z,14.36
2019-02-21T22:55:12.782Z,14.31
2019-02-21T22:57:42.189Z,14.08
2019-02-21T23:01:12.772Z,14.36
2019-02-21T23:03:50.763Z,14.79
2019-02-21T23:06:47.084Z,14.73
2019-02-21T23:09:27.455Z,14.51
2019-02-21T23:11:57.098Z,14.49
2019-02-21T23:14:36.997Z,14.03
2019-02-21T23:17:06.410Z,14.03
2019-02-21T23:19:59.979Z,13.79
2019-02-21T23:22:30.552Z,14.11
2019-02-21T23:24:59.887Z,14.04
2019-02-21T23:27:29.322Z,13.83
2019-02-21T23:29:58.807Z,14.12
2019-02-21T23:32:28.167Z,13.66
2019-02-21T23:35:00.792Z,14.34
2019-02-21T23:37:30.095Z,14.07
2019-02-21T23:40:09.347Z,13.89
2019-02-21T23:42:39.740Z,14.08
2019-02-21T23:45:09.221Z,13.88
2019-02-21T23:47:49.003Z,13.85
2019-02-21T23:50:09.572Z,13.97
2019-02-21T23:52:38.924Z,14.01
2019-02-21T23:55:08.250Z,14.08
2019-02-21T23:57:38.845Z,13.95
